createdAt,value
2023-02-28T00:01:50.653Z,87331.16
2023-02-28T00:04:18.036Z,87332.50
2023-02-28T00:06:45.519Z,87335.72
2023-02-28T00:09:12.752Z,87342.41
2023-02-28T00:11:39.914Z,87336.59
2023-02-28T00:14:07.050Z,87327.78
2023-02-28T00:16:34.348Z,87333.28
2023-02-28T00:19:01.806Z,87335.56
2023-02-28T00:21:29.501Z,87331.44
2023-02-28T00:23:56.912Z,87341.19
2023-02-28T00:26:24.158Z,87345.28
2023-02-28T00:28:53.640Z,87342.09
2023-02-28T00:31:20.863Z,87341.19
2023-02-28T00:33:48.109Z,87345.16
2023-02-28T00:36:15.551Z,87340.28
2023-02-28T00:38:42.924Z,87344.69
2023-02-28T00:41:10.402Z,87346.53
2023-02-28T00:43:39.935Z,87343.50
2023-02-28T00:46:08.471Z,87349.72
2023-02-28T00:48:36.033Z,87347.28
2023-02-28T00:51:03.806Z,87346.81
2023-02-28T00:53:31.244Z,87350.63
2023-02-28T00:55:58.415Z,87344.84
2023-02-28T00:58:26.074Z,87344.53
2023-02-28T01:00:54.311Z,87346.81
2023-02-28T01:03:22.719Z,87349.25
2023-02-28T01:05:50.104Z,87354.13
2023-02-28T01:08:17.530Z,87348.31
2023-02-28T01:10:44.849Z,87351.81
2023-02-28T01:13:13.579Z,87350.91
2023-02-28T01:15:50.101Z,87346.66
2023-02-28T01:18:17.397Z,87356.06
2023-02-28T01:20:45.199Z,87351.81
2023-02-28T01:23:12.366Z,87350.44
2023-02-28T01:25:40.166Z,87353.19
2023-02-28T01:28:07.620Z,87352.13
2023-02-28T01:30:35.294Z,87353.75
2023-02-28T01:33:03.212Z,87354.25
2023-02-28T01:35:34.131Z,87354.72
2023-02-28T01:38:15.739Z,87359.44
2023-02-28T01:40:48.333Z,87354.13
2023-02-28T01:43:43.829Z,87347.00
2023-02-28T01:46:12.923Z,87353.34
2023-02-28T01:49:06.198Z,87350.94
2023-02-28T01:51:36.493Z,87359.28
2023-02-28T01:54:11.752Z,87367.19
2023-02-28T01:56:39.155Z,87360.81
2023-02-28T01:59:06.521Z,87360.50
2023-02-28T02:01:33.742Z,87358.06
2023-02-28T02:04:05.045Z,87362.78
2023-02-28T02:06:45.546Z,87366.16
2023-02-28T02:09:13.684Z,87363.09
2023-02-28T02:11:46.042Z,87362.03
2023-02-28T02:14:53.743Z,87364.91
2023-02-28T02:17:39.663Z,87363.06
2023-02-28T02:20:21.867Z,87360.66
2023-02-28T02:23:42.014Z,87368.41
2023-02-28T02:26:42.872Z,87367.19
2023-02-28T02:29:48.188Z,87363.06
2023-02-28T02:32:33.390Z,87375.72
2023-02-28T02:35:28.392Z,87372.66
2023-02-28T02:38:20.003Z,87379.19
2023-02-28T02:41:17.677Z,87369.59
2023-02-28T02:44:17.450Z,87381.47
2023-02-28T02:46:48.512Z,87382.25
2023-02-28T02:49:31.848Z,87377.84
2023-02-28T02:52:07.099Z,87381.78
2023-02-28T02:54:41.208Z,87385.41
2023-02-28T02:57:52.177Z,87381.34
2023-02-28T03:00:26.558Z,87391.50
2023-02-28T03:02:55.919Z,87391.03
2023-02-28T03:05:31.267Z,87387.22
2023-02-28T03:07:58.872Z,87388.31
2023-02-28T03:10:45.791Z,87392.38
2023-02-28T03:13:43.796Z,87389.50
2023-02-28T03:16:30.220Z,87393.59
2023-02-28T03:19:31.883Z,87390.25
2023-02-28T03:22:32.957Z,87389.34
2023-02-28T03:25:44.677Z,87389.00
2023-02-28T03:28:30.621Z,87388.09
2023-02-28T03:31:18.500Z,87396.59
2023-02-28T03:33:50.921Z,87403.44
2023-02-28T03:36:21.072Z,87399.81
2023-02-28T03:38:59.126Z,87393.59
2023-02-28T03:41:39.714Z,87397.81
2023-02-28T03:44:33.529Z,87398.88
2023-02-28T03:47:44.993Z,87408.47
2023-02-28T03:50:21.506Z,87408.75
2023-02-28T03:52:54.646Z,87404.19
2023-02-28T03:55:23.034Z,87414.97
2023-02-28T03:58:26.317Z,87398.59
2023-02-28T04:01:25.932Z,87410.72
2023-02-28T04:03:53.761Z,87414.41
2023-02-28T04:06:23.759Z,87416.97
2023-02-28T04:08:51.781Z,87421.97
2023-02-28T04:11:28.831Z,87418.34
2023-02-28T04:13:56.583Z,87418.78
2023-02-28T04:16:34.442Z,87427.47
2023-02-28T04:19:05.082Z,87427.75
2023-02-28T04:21:35.907Z,87432.75
2023-02-28T04:24:04.213Z,87424.88
2023-02-28T04:26:33.434Z,87420.94
2023-02-28T04:29:02.625Z,87428.09
2023-02-28T04:31:30.392Z,87429.16
2023-02-28T04:33:58.931Z,87435.69
2023-02-28T04:36:26.463Z,87429.91
2023-02-28T04:38:54.342Z,87428.56
2023-02-28T04:41:22.379Z,87430.84
2023-02-28T04:43:51.754Z,87433.88
2023-02-28T04:46:20.058Z,87431.00
2023-02-28T04:48:47.969Z,87437.53
2023-02-28T04:51:17.450Z,87435.84
2023-02-28T04:53:45.212Z,87436.94
2023-02-28T04:56:17.733Z,87429.66
2023-02-28T04:58:45.886Z,87437.41
2023-02-28T05:01:29.469Z,87443.03
2023-02-28T05:03:58.860Z,87440.28
2023-02-28T05:06:29.616Z,87432.38
2023-02-28T05:08:57.483Z,87430.25
2023-02-28T05:11:31.485Z,87437.41
2023-02-28T05:13:59.258Z,87430.13
2023-02-28T05:16:26.891Z,87442.09
2023-02-28T05:18:54.501Z,87432.41
2023-02-28T05:21:33.089Z,87431.34
2023-02-28T05:24:03.317Z,87444.56
2023-02-28T05:26:31.391Z,87440.28
2023-02-28T05:28:59.071Z,87447.31
2023-02-28T05:31:26.846Z,87448.53
2023-02-28T05:33:54.778Z,87455.06
2023-02-28T05:36:22.792Z,87454.00
2023-02-28T05:38:51.162Z,87451.88
2023-02-28T05:41:19.934Z,87455.06
2023-02-28T05:43:48.821Z,87446.84
2023-02-28T05:46:16.832Z,87454.31
2023-02-28T05:48:47.251Z,87456.56
2023-02-28T05:51:14.828Z,87454.91
2023-02-28T05:53:42.473Z,87458.56
2023-02-28T05:56:10.101Z,87460.09
2023-02-28T05:58:37.613Z,87454.91
2023-02-28T06:01:33.662Z,87458.00
2023-02-28T06:04:02.197Z,87459.94
2023-02-28T06:06:30.040Z,87456.31
2023-02-28T06:08:58.291Z,87454.34
2023-02-28T06:11:26.267Z,87456.94
2023-02-28T06:13:56.047Z,87454.97
2023-02-28T06:16:24.208Z,87450.69
2023-02-28T06:18:51.773Z,87455.69
2023-02-28T06:21:19.710Z,87457.22
2023-02-28T06:23:47.256Z,87456.94
2023-02-28T06:26:14.929Z,87454.06
2023-02-28T06:28:42.529Z,87451.28
2023-02-28T06:31:16.667Z,87454.50
2023-02-28T06:33:45.035Z,87460.47
2023-02-28T06:36:13.779Z,87459.69
2023-02-28T06:38:42.104Z,87460.28
2023-02-28T06:41:10.456Z,87463.03
2023-02-28T06:43:42.894Z,87466.53
2023-02-28T06:46:14.125Z,87463.66
2023-02-28T06:48:42.363Z,87464.41
2023-02-28T06:51:13.341Z,87469.25
2023-02-28T06:53:41.125Z,87470.63
2023-02-28T06:56:11.487Z,87473.72
2023-02-28T06:58:39.557Z,87482.06
2023-02-28T07:01:08.729Z,87482.66
2023-02-28T07:03:39.191Z,87483.09
2023-02-28T07:06:07.607Z,87484.78
2023-02-28T07:08:36.246Z,87481.88
2023-02-28T07:11:04.744Z,87494.22
2023-02-28T07:13:32.630Z,87493.31
2023-02-28T07:16:07.363Z,87492.28
2023-02-28T07:18:34.927Z,87496.53
2023-02-28T07:21:07.907Z,87491.97
2023-02-28T07:23:36.567Z,87491.84
2023-02-28T07:26:05.128Z,87487.31
2023-02-28T07:28:32.637Z,87486.09
2023-02-28T07:31:06.234Z,87485.31
2023-02-28T07:33:34.930Z,87501.75
2023-02-28T07:36:09.004Z,87491.59
2023-02-28T07:38:38.004Z,87493.25
2023-02-28T07:41:05.684Z,87490.81
2023-02-28T07:43:34.036Z,87494.31
2023-02-28T07:46:11.026Z,87491.59
2023-02-28T07:48:39.296Z,87485.81
2023-02-28T07:51:07.379Z,87494.94
2023-02-28T07:53:35.030Z,87495.09
2023-02-28T07:56:03.582Z,87491.31
2023-02-28T07:58:32.089Z,87490.69
2023-02-28T08:01:07.584Z,87489.50
2023-02-28T08:03:35.570Z,87491.16
2023-02-28T08:06:04.892Z,87485.69
2023-02-28T08:08:32.536Z,87490.84
2023-02-28T08:11:04.544Z,87482.63
2023-02-28T08:13:32.460Z,87481.41
2023-02-28T08:16:02.627Z,87478.81
2023-02-28T08:18:30.381Z,87485.84
2023-02-28T08:20:58.014Z,87480.94
2023-02-28T08:23:25.627Z,87486.44
2023-02-28T08:25:57.637Z,87487.81
2023-02-28T08:28:27.284Z,87496.16
2023-02-28T08:30:55.412Z,87495.09
2023-02-28T08:33:23.980Z,87496.94
2023-02-28T08:35:54.762Z,87493.41
2023-02-28T08:38:22.846Z,87492.81
2023-02-28T08:40:50.717Z,87499.66
2023-02-28T08:43:18.410Z,87494.78
2023-02-28T08:45:46.030Z,87500.56
2023-02-28T08:48:13.682Z,87500.09
2023-02-28T08:50:41.228Z,87504.81
2023-02-28T08:53:08.885Z,87498.88
2023-02-28T08:55:36.794Z,87500.53
2023-02-28T08:58:04.385Z,87505.72
2023-02-28T09:00:31.965Z,87505.25
2023-02-28T09:02:59.566Z,87507.06
2023-02-28T09:05:27.180Z,87500.66
2023-02-28T09:07:54.911Z,87507.88
2023-02-28T09:10:22.536Z,87507.84
2023-02-28T09:12:50.070Z,87512.72
2023-02-28T09:15:17.680Z,87513.78
2023-02-28T09:17:46.986Z,87510.53
2023-02-28T09:20:16.660Z,87511.75
2023-02-28T09:22:44.148Z,87513.72
2023-02-28T09:25:11.613Z,87514.81
2023-02-28T09:27:39.207Z,87513.72
2023-02-28T09:30:07.551Z,87513.53
2023-02-28T09:32:35.360Z,87510.28
2023-02-28T09:35:02.924Z,87514.69
2023-02-28T09:37:30.829Z,87513.56
2023-02-28T09:39:58.631Z,87509.41
2023-02-28T09:42:33.096Z,87509.69
2023-02-28T09:45:07.024Z,87508.84
2023-02-28T09:47:45.732Z,87506.53
2023-02-28T09:50:42.672Z,87518.13
2023-02-28T09:53:35.845Z,87519.41
2023-02-28T09:56:06.374Z,87521.81
2023-02-28T09:58:43.222Z,87521.88
2023-02-28T10:01:42.374Z,87517.72
2023-02-28T10:04:18.871Z,87520.41
2023-02-28T10:06:53.983Z,87525.53
2023-02-28T10:09:30.329Z,87526.13
2023-02-28T10:12:04.691Z,87522.25
2023-02-28T10:14:35.329Z,87521.38
2023-02-28T10:17:49.425Z,87515.75
2023-02-28T10:20:25.842Z,87513.41
2023-02-28T10:23:43.570Z,87517.91
2023-02-28T10:26:17.949Z,87520.56
2023-02-28T10:28:46.490Z,87517.19
2023-02-28T10:31:20.554Z,87512.53
2023-02-28T10:33:49.376Z,87509.88
2023-02-28T10:36:20.703Z,87512.69
2023-02-28T10:38:49.304Z,87513.56
2023-02-28T10:41:43.134Z,87503.75
2023-02-28T10:44:24.542Z,87514.38
2023-02-28T10:46:52.661Z,87506.06
2023-02-28T10:49:27.518Z,87511.41
2023-02-28T10:52:02.004Z,87515.13
2023-02-28T10:54:36.947Z,87511.78
2023-02-28T10:57:23.233Z,87506.38
2023-02-28T11:00:16.273Z,87507.03
2023-02-28T11:02:43.606Z,87508.00
2023-02-28T11:05:31.818Z,87502.47
2023-02-28T11:08:16.884Z,87499.97
2023-02-28T11:10:58.972Z,87499.97
2023-02-28T11:13:37.495Z,87487.69
2023-02-28T11:16:13.125Z,87497.78
2023-02-28T11:18:56.385Z,87486.03
2023-02-28T11:21:56.111Z,87483.50
2023-02-28T11:24:34.714Z,87485.00
2023-02-28T11:27:03.145Z,87480.84
2023-02-28T11:29:33.727Z,87470.16
2023-02-28T11:32:14.565Z,87473.44
2023-02-28T11:34:43.926Z,87464.66
2023-02-28T11:37:19.736Z,87461.50
2023-02-28T11:39:47.676Z,87448.00
2023-02-28T11:42:35.648Z,87445.47
2023-02-28T11:45:39.250Z,87444.16
2023-02-28T11:48:17.658Z,87444.47
2023-02-28T11:51:02.745Z,87442.25
2023-02-28T11:53:52.210Z,87444.50
2023-02-28T11:56:39.573Z,87434.84
2023-02-28T11:59:30.438Z,87436.06
2023-02-28T12:06:26.945Z,87439.13
2023-02-28T12:09:42.721Z,87440.56
2023-02-28T12:12:26.581Z,87433.88
2023-02-28T12:15:19.387Z,87434.50
2023-02-28T12:18:18.300Z,87432.50
2023-02-28T12:20:55.230Z,87430.28
2023-02-28T12:23:47.976Z,87430.13
2023-02-28T12:26:45.228Z,87427.06
2023-02-28T12:29:35.047Z,87427.03
2023-02-28T12:32:36.120Z,87417.38
2023-02-28T12:35:20.363Z,87427.44
2023-02-28T12:38:05.426Z,87426.69
2023-02-28T12:41:04.080Z,87434.22
2023-02-28T12:43:45.514Z,87422.94
2023-02-28T12:46:29.738Z,87420.84
2023-02-28T12:49:00.264Z,87419.72
2023-02-28T12:51:30.074Z,87423.22
2023-02-28T12:54:33.460Z,87426.19
2023-02-28T12:57:10.341Z,87408.50
2023-02-28T13:00:00.988Z,87418.28
2023-02-28T13:03:07.528Z,87415.94
2023-02-28T13:05:43.339Z,87404.25
2023-02-28T13:08:29.173Z,87407.56
2023-02-28T13:10:56.467Z,87403.97
2023-02-28T13:13:28.653Z,87401.97
2023-02-28T13:16:11.725Z,87399.16
2023-02-28T13:18:45.388Z,87398.34
2023-02-28T13:21:31.540Z,87406.22
2023-02-28T13:24:06.589Z,87404.13
2023-02-28T13:26:39.606Z,87391.84
2023-02-28T13:29:12.573Z,87389.25
2023-02-28T13:32:04.376Z,87384.31
2023-02-28T13:34:31.656Z,87389.16
2023-02-28T13:37:23.767Z,87386.19
2023-02-28T13:39:56.279Z,87382.72
2023-02-28T13:42:23.564Z,87381.22
2023-02-28T13:45:03.107Z,87374.19
2023-02-28T13:47:53.416Z,87371.84
2023-02-28T13:50:27.701Z,87367.94
2023-02-28T13:53:15.914Z,87361.28
2023-02-28T13:56:11.121Z,87368.81
2023-02-28T13:59:27.467Z,87361.69
2023-02-28T14:02:41.686Z,87367.72
2023-02-28T14:05:23.387Z,87360.25
2023-02-28T14:07:56.804Z,87359.81
2023-02-28T14:10:33.616Z,87366.19
2023-02-28T14:13:56.752Z,87363.94
2023-02-28T14:16:44.992Z,87363.84
2023-02-28T14:19:27.337Z,87356.59
2023-02-28T14:22:33.516Z,87355.47
2023-02-28T14:25:09.920Z,87355.81
2023-02-28T14:28:32.820Z,87353.66
2023-02-28T14:31:05.899Z,87358.66
2023-02-28T14:34:04.428Z,87354.53
2023-02-28T14:36:38.925Z,87351.56
2023-02-28T14:39:28.739Z,87349.00
2023-02-28T14:41:56.226Z,87348.97
2023-02-28T14:44:28.944Z,87348.22
2023-02-28T14:47:02.307Z,87355.28
2023-02-28T14:49:48.402Z,87353.69
2023-02-28T14:52:32.203Z,87356.28
2023-02-28T14:55:06.346Z,87356.16
2023-02-28T14:57:50.905Z,87354.69
2023-02-28T15:00:29.377Z,87359.91
2023-02-28T15:02:59.429Z,87359.47
2023-02-28T15:05:36.005Z,87368.91
2023-02-28T15:08:24.449Z,87363.53
2023-02-28T15:11:18.607Z,87367.28
2023-02-28T15:13:50.223Z,87360.53
2023-02-28T15:16:30.708Z,87359.84
2023-02-28T15:19:29.306Z,87374.38
2023-02-28T15:22:15.236Z,87378.03
2023-02-28T15:24:52.906Z,87383.44
2023-02-28T15:27:29.396Z,87373.41
2023-02-28T15:30:01.672Z,87374.97
2023-02-28T15:32:34.208Z,87383.56
2023-02-28T15:35:25.408Z,87380.97
2023-02-28T15:38:12.194Z,87374.94
2023-02-28T15:40:46.258Z,87372.91
2023-02-28T15:43:20.540Z,87374.28
2023-02-28T15:45:54.251Z,87380.88
2023-02-28T15:48:30.544Z,87383.16
2023-02-28T15:51:07.067Z,87380.31
2023-02-28T15:53:42.321Z,87384.06
2023-02-28T15:56:54.638Z,87382.09
2023-02-28T15:59:29.012Z,87384.41
2023-02-28T16:02:16.117Z,87392.09
2023-02-28T16:05:19.084Z,87389.69
2023-02-28T16:07:46.489Z,87388.28
2023-02-28T16:10:18.818Z,87391.31
2023-02-28T16:12:46.104Z,87395.13
2023-02-28T16:15:30.441Z,87393.50
2023-02-28T16:18:02.619Z,87398.41
2023-02-28T16:20:32.345Z,87398.28
2023-02-28T16:23:02.402Z,87401.34
2023-02-28T16:25:40.649Z,87397.03
2023-02-28T16:28:39.445Z,87393.78
2023-02-28T16:31:08.702Z,87406.94
2023-02-28T16:33:36.208Z,87397.84
2023-02-28T16:36:03.938Z,87408.69
2023-02-28T16:38:31.151Z,87411.09
2023-02-28T16:41:01.497Z,87407.63
2023-02-28T16:43:30.796Z,87411.94
2023-02-28T16:46:01.135Z,87412.38
2023-02-28T16:48:28.846Z,87413.34
2023-02-28T16:50:56.076Z,87423.34
2023-02-28T16:53:23.227Z,87413.69
2023-02-28T16:55:50.566Z,87414.44
2023-02-28T16:58:18.355Z,87427.78
2023-02-28T17:00:45.904Z,87429.09
2023-02-28T17:03:33.022Z,87426.16
2023-02-28T17:06:01.609Z,87428.97
2023-02-28T17:08:28.974Z,87426.13
2023-02-28T17:10:56.836Z,87428.97
2023-02-28T17:13:24.395Z,87429.94
2023-02-28T17:15:52.385Z,87433.28
2023-02-28T17:18:21.788Z,87440.72
2023-02-28T17:20:50.045Z,87438.13
2023-02-28T17:23:17.799Z,87442.03
2023-02-28T17:29:58.958Z,87450.78
2023-02-28T17:32:27.450Z,87445.59
2023-02-28T17:34:55.645Z,87446.38
2023-02-28T17:37:22.815Z,87449.94
2023-02-28T17:39:50.039Z,87456.91
2023-02-28T17:42:17.275Z,87452.34
2023-02-28T17:44:44.641Z,87460.38
2023-02-28T17:47:13.691Z,87456.84
2023-02-28T17:49:41.300Z,87452.13
2023-02-28T17:52:09.533Z,87457.00
2023-02-28T17:54:36.906Z,87460.22
2023-02-28T17:57:04.375Z,87459.34
2023-02-28T17:59:31.680Z,87461.75
2023-02-28T18:01:59.138Z,87463.16
2023-02-28T18:04:26.522Z,87464.44
2023-02-28T18:06:55.128Z,87463.09
2023-02-28T18:09:24.089Z,87464.19
2023-02-28T18:11:55.060Z,87468.94
2023-02-28T18:14:27.402Z,87468.97
2023-02-28T18:16:59.832Z,87473.22
2023-02-28T18:19:27.503Z,87477.88
2023-02-28T18:21:55.246Z,87481.53
2023-02-28T18:24:27.621Z,87483.06
2023-02-28T18:26:54.877Z,87478.50
2023-02-28T18:29:26.243Z,87484.22
2023-02-28T18:31:56.125Z,87488.63
2023-02-28T18:34:25.379Z,87479.34
2023-02-28T18:36:53.893Z,87486.03
2023-02-28T18:39:21.638Z,87484.06
2023-02-28T18:41:48.870Z,87492.06
2023-02-28T18:44:20.944Z,87485.47
2023-02-28T18:46:50.685Z,87492.69
2023-02-28T18:49:18.657Z,87491.34
2023-02-28T18:51:46.217Z,87489.81
2023-02-28T18:54:16.641Z,87487.09
2023-02-28T18:56:44.248Z,87487.91
2023-02-28T18:59:12.215Z,87488.22
2023-02-28T19:01:40.073Z,87492.66
2023-02-28T19:04:07.411Z,87488.34
2023-02-28T19:06:35.329Z,87496.19
2023-02-28T19:09:04.233Z,87501.38
2023-02-28T19:11:32.415Z,87500.34
2023-02-28T19:13:59.865Z,87491.06
2023-02-28T19:16:28.475Z,87494.16
2023-02-28T19:18:56.433Z,87494.28
2023-02-28T19:21:25.381Z,87496.88
2023-02-28T19:23:53.269Z,87506.41
2023-02-28T19:26:24.941Z,87506.69
2023-02-28T19:28:52.776Z,87503.38
2023-02-28T19:31:24.524Z,87509.66
2023-02-28T19:33:52.401Z,87514.53
2023-02-28T19:36:21.934Z,87513.47
2023-02-28T19:38:50.152Z,87509.78
2023-02-28T19:41:19.230Z,87514.97
2023-02-28T19:43:47.164Z,87515.34
2023-02-28T19:46:15.228Z,87519.44
2023-02-28T19:48:43.017Z,87517.94
2023-02-28T19:51:13.150Z,87520.09
2023-02-28T19:53:42.851Z,87524.53
2023-02-28T19:56:10.606Z,87520.09
2023-02-28T19:58:39.160Z,87525.75
2023-02-28T20:01:14.759Z,87527.44
2023-02-28T20:03:43.026Z,87527.78
2023-02-28T20:06:12.376Z,87531.44
2023-02-28T20:08:40.185Z,87527.31
2023-02-28T20:11:12.354Z,87534.03
2023-02-28T20:13:40.160Z,87537.09
2023-02-28T20:16:11.524Z,87533.44
2023-02-28T20:18:41.053Z,87539.38
2023-02-28T20:21:09.883Z,87538.94
2023-02-28T20:23:41.724Z,87538.50
2023-02-28T20:26:10.071Z,87544.91
2023-02-28T20:28:38.447Z,87539.13
2023-02-28T20:31:17.507Z,87544.31
2023-02-28T20:33:46.967Z,87545.38
2023-02-28T20:36:15.585Z,87553.47
2023-02-28T20:38:43.339Z,87549.19
2023-02-28T20:41:11.152Z,87547.53
2023-02-28T20:43:39.432Z,87548.59
2023-02-28T20:46:06.681Z,87547.38
2023-02-28T20:48:35.261Z,87557.88
2023-02-28T20:51:03.630Z,87548.44
2023-02-28T20:53:32.318Z,87552.41
2023-02-28T20:56:09.984Z,87550.28
2023-02-28T20:58:38.548Z,87559.59
2023-02-28T21:01:25.517Z,87557.59
2023-02-28T21:04:01.029Z,87571.91
2023-02-28T21:06:42.894Z,87561.41
2023-02-28T21:09:14.172Z,87565.38
2023-02-28T21:11:42.527Z,87570.09
2023-02-28T21:14:15.797Z,87568.88
2023-02-28T21:16:43.740Z,87566.88
2023-02-28T21:19:11.824Z,87565.66
2023-02-28T21:21:43.569Z,87567.81
2023-02-28T21:24:13.525Z,87560.78
2023-02-28T21:26:44.126Z,87553.91
2023-02-28T21:29:13.577Z,87557.72
2023-02-28T21:31:41.965Z,87556.19
2023-02-28T21:34:12.212Z,87553.91
2023-02-28T21:36:43.003Z,87563.22
2023-02-28T21:39:22.684Z,87566.84
2023-02-28T21:41:50.127Z,87559.69
2023-02-28T21:44:17.431Z,87553.00
2023-02-28T21:46:47.507Z,87561.81
2023-02-28T21:49:16.147Z,87560.59
2023-02-28T21:51:44.139Z,87552.06
2023-02-28T21:54:12.079Z,87561.22
2023-02-28T21:56:39.579Z,87561.66
2023-02-28T21:59:06.963Z,87563.03
2023-02-28T22:01:39.868Z,87551.75
2023-02-28T22:04:10.122Z,87557.81
2023-02-28T22:06:41.065Z,87559.78
2023-02-28T22:09:10.424Z,87568.00
2023-02-28T22:11:39.842Z,87568.56
2023-02-28T22:14:12.085Z,87567.53
2023-02-28T22:16:51.250Z,87560.94
2023-02-28T22:19:22.119Z,87569.19
2023-02-28T22:21:50.034Z,87566.59
2023-02-28T22:24:17.914Z,87564.16
2023-02-28T22:26:45.637Z,87576.78
2023-02-28T22:29:12.929Z,87572.81
2023-02-28T22:31:40.667Z,87569.88
2023-02-28T22:34:11.862Z,87566.06
2023-02-28T22:36:42.761Z,87568.63
2023-02-28T22:39:10.635Z,87570.00
2023-02-28T22:41:38.965Z,87571.03
2023-02-28T22:44:07.531Z,87560.53
2023-02-28T22:46:36.635Z,87576.38
2023-02-28T22:49:06.283Z,87569.31
2023-02-28T22:51:35.128Z,87577.53
2023-02-28T22:54:03.546Z,87576.13
2023-02-28T22:56:31.967Z,87572.63
2023-02-28T22:59:01.223Z,87558.75
2023-02-28T23:01:33.603Z,87568.50
2023-02-28T23:04:01.573Z,87566.78
2023-02-28T23:06:35.848Z,87565.69
2023-02-28T23:09:08.311Z,87562.06
2023-02-28T23:11:42.915Z,87551.69
2023-02-28T23:14:12.681Z,87554.75
2023-02-28T23:16:45.001Z,87557.13
2023-02-28T23:19:17.367Z,87552.44
2023-02-28T23:21:46.313Z,87556.41
2023-02-28T23:24:16.855Z,87565.84
2023-02-28T23:26:49.139Z,87559.91
2023-02-28T23:29:18.896Z,87556.09
2023-02-28T23:31:46.369Z,87557.59
2023-02-28T23:34:14.781Z,87561.25
2023-02-28T23:36:42.291Z,87557.59
2023-02-28T23:39:09.562Z,87558.56
2023-02-28T23:41:36.795Z,87550.34
2023-02-28T23:44:04.036Z,87555.97
2023-02-28T23:46:31.720Z,87550.16
2023-02-28T23:48:59.905Z,87559.25
2023-02-28T23:51:27.157Z,87550.00
2023-02-28T23:53:54.421Z,87553.47
2023-02-28T23:56:24.866Z,87544.16
2023-02-28T23:58:52.229Z,87540.19
